Time;durP1;ratioP1;P1;durP2;ratioP2;P2;SDS_P1;SDS_P2;PMS_P1;PMS_P2;Temp;Humidity;BMP_temperature;BMP_pressure;BME280_temperature;BME280_humidity;BME280_pressure;Samples;Min_cycle;Max_cycle;Signal;HPM_P1;HPM_P2
2023/10/22 00:00:15;;;;;;;5.00;0.40;;;13.00;99.90;;;;;;4878198;28;90018;-76
2023/10/22 00:02:41;;;;;;;2.45;0.35;;;13.00;99.90;;;;;;4875319;28;90570;-76
2023/10/22 00:05:07;;;;;;;2.83;0.40;;;13.00;99.90;;;;;;4876302;28;86444;-76
2023/10/22 00:07:38;;;;;;;1.55;0.40;;;12.90;99.90;;;;;;4877531;28;86791;-76
2023/10/22 00:10:04;;;;;;;1.58;0.40;;;13.00;99.90;;;;;;4902412;28;87841;-76
2023/10/22 00:12:30;;;;;;;4.20;0.30;;;12.90;99.90;;;;;;4875818;28;89601;-76
2023/10/22 00:14:56;;;;;;;1.42;0.38;;;13.00;99.90;;;;;;4879630;28;86665;-75
2023/10/22 00:17:22;;;;;;;2.00;0.30;;;12.90;99.90;;;;;;4898520;28;86785;-76
2023/10/22 00:19:48;;;;;;;4.78;0.40;;;12.90;99.90;;;;;;4900180;28;88023;-76
2023/10/22 00:22:14;;;;;;;4.95;0.40;;;12.90;99.90;;;;;;4904529;28;90789;-76
2023/10/22 00:24:41;;;;;;;1.20;0.20;;;12.90;99.90;;;;;;4877285;28;86655;-76
2023/10/22 00:27:06;;;;;;;5.65;0.40;;;12.90;99.90;;;;;;4888557;28;86943;-76
2023/10/22 00:29:32;;;;;;;3.45;0.40;;;12.80;99.90;;;;;;4879206;28;89587;-76
2023/10/22 00:31:58;;;;;;;3.20;0.40;;;12.80;99.90;;;;;;4903810;28;86844;-76
2023/10/22 00:34:24;;;;;;;0.82;0.22;;;12.70;99.90;;;;;;4878622;28;87748;-75
2023/10/22 00:36:49;;;;;;;1.50;0.30;;;12.70;99.90;;;;;;4904379;28;86981;-76
2023/10/22 00:39:16;;;;;;;1.08;0.30;;;12.60;99.90;;;;;;4887720;28;90437;-76
2023/10/22 00:41:41;;;;;;;2.58;0.32;;;12.60;99.90;;;;;;4876651;28;89642;-76
2023/10/22 00:44:07;;;;;;;1.35;0.30;;;12.60;99.90;;;;;;4904014;28;86341;-76
2023/10/22 00:46:33;;;;;;;2.40;0.43;;;12.60;99.90;;;;;;4877468;28;86818;-75
2023/10/22 00:48:59;;;;;;;2.35;0.45;;;12.60;99.90;;;;;;4904742;28;86566;-75
2023/10/22 00:51:25;;;;;;;0.70;0.25;;;12.60;99.90;;;;;;4905528;28;86633;-77
2023/10/22 00:53:52;;;;;;;3.53;0.60;;;12.60;99.90;;;;;;4883038;28;86452;-76
2023/10/22 00:56:17;;;;;;;2.55;0.40;;;12.60;99.90;;;;;;4879065;28;86345;-76
2023/10/22 00:58:43;;;;;;;4.95;0.30;;;12.60;99.90;;;;;;4876275;28;90069;-76
2023/10/22 01:01:12;;;;;;;2.55;0.43;;;12.60;99.90;;;;;;4904782;28;87555;-76
2023/10/22 01:03:39;;;;;;;1.98;0.85;;;12.60;99.90;;;;;;4904031;28;86485;-76
2023/10/22 01:06:06;;;;;;;2.47;0.40;;;12.60;99.90;;;;;;4883170;28;87309;-76
2023/10/22 01:08:36;;;;;;;2.08;0.60;;;12.60;99.90;;;;;;4876316;28;90625;-76
2023/10/22 01:11:10;;;;;;;2.10;0.40;;;12.60;99.90;;;;;;4881152;28;89870;-76
2023/10/22 01:13:36;;;;;;;;;;;12.60;99.90;;;;;;4879291;28;86298;-76
2023/10/22 01:16:02;;;;;;;1.75;0.22;;;12.70;99.90;;;;;;4887047;28;87053;-76
2023/10/22 01:18:28;;;;;;;1.55;0.30;;;12.70;99.90;;;;;;4904901;28;87911;-76
2023/10/22 01:20:54;;;;;;;3.42;0.30;;;12.70;99.90;;;;;;4886170;28;94863;-76
2023/10/22 01:23:23;;;;;;;1.90;0.30;;;12.70;99.90;;;;;;4882680;28;87045;-76
2023/10/22 01:25:48;;;;;;;1.42;0.30;;;12.70;99.90;;;;;;4880126;28;86687;-76
2023/10/22 01:28:14;;;;;;;2.47;0.38;;;12.70;99.90;;;;;;4876084;28;90577;-76
2023/10/22 01:30:40;;;;;;;1.10;0.20;;;12.70;99.90;;;;;;4886183;28;89879;-77
2023/10/22 01:33:13;;;;;;;1.60;0.20;;;12.80;99.90;;;;;;4879073;28;86157;-76
2023/10/22 01:35:39;;;;;;;5.88;0.38;;;12.80;99.90;;;;;;4877693;28;86237;-76
2023/10/22 01:38:05;;;;;;;1.55;0.20;;;12.80;99.90;;;;;;4904845;28;88026;-76
2023/10/22 01:40:31;;;;;;;1.20;0.30;;;12.80;99.90;;;;;;4903084;28;88236;-76
2023/10/22 01:42:56;;;;;;;1.45;0.30;;;12.80;99.90;;;;;;4903383;28;85908;-76
2023/10/22 01:45:25;;;;;;;0.20;0.20;;;12.80;99.90;;;;;;4877758;28;86523;-76
2023/10/22 01:47:50;;;;;;;2.53;0.20;;;12.80;99.90;;;;;;4874087;28;89374;-77
2023/10/22 01:50:16;;;;;;;0.32;0.10;;;12.80;99.90;;;;;;4877658;28;89683;-76
2023/10/22 01:52:42;;;;;;;0.65;0.30;;;12.80;99.90;;;;;;4879680;28;86251;-77
2023/10/22 01:55:10;;;;;;;0.50;0.20;;;12.80;99.90;;;;;;4886844;28;86835;-76
2023/10/22 01:57:36;;;;;;;1.30;0.22;;;12.80;99.90;;;;;;4877234;28;89048;-76
2023/10/22 02:00:03;;;;;;;0.47;0.30;;;12.80;99.90;;;;;;4886305;28;90078;-76
2023/10/22 02:02:28;;;;;;;0.57;0.20;;;12.80;99.90;;;;;;4904360;28;86940;-76
2023/10/22 02:04:54;;;;;;;1.48;0.20;;;12.70;99.90;;;;;;4880862;28;86547;-77
2023/10/22 02:07:19;;;;;;;0.55;0.10;;;12.80;99.90;;;;;;4903241;28;88837;-76
2023/10/22 02:09:45;;;;;;;0.55;0.20;;;12.70;99.90;;;;;;4886009;28;89679;-76
2023/10/22 02:12:11;;;;;;;1.00;0.20;;;12.80;99.90;;;;;;4881421;28;87005;-76
2023/10/22 02:14:37;;;;;;;0.30;0.20;;;12.80;99.90;;;;;;4904544;28;86414;-75
2023/10/22 02:17:03;;;;;;;0.60;0.20;;;12.80;99.90;;;;;;4877409;28;89917;-76
2023/10/22 02:19:29;;;;;;;0.85;0.52;;;12.80;99.90;;;;;;4880184;28;89879;-77
2023/10/22 02:21:54;;;;;;;2.30;0.30;;;12.80;99.90;;;;;;4876807;28;86912;-76
2023/10/22 02:24:20;;;;;;;0.70;0.17;;;12.80;99.90;;;;;;4903644;28;86487;-76
2023/10/22 02:26:49;;;;;;;1.27;0.20;;;12.80;99.90;;;;;;4908737;28;87331;-76
2023/10/22 02:29:15;;;;;;;1.50;0.20;;;12.80;99.90;;;;;;4877523;28;89028;-75
2023/10/22 02:31:42;;;;;;;1.33;0.60;;;12.80;99.90;;;;;;4879519;28;86378;-76
2023/10/22 02:34:09;;;;;;;1.35;0.20;;;12.80;99.90;;;;;;4901306;28;86346;-76
2023/10/22 02:36:43;;;;;;;1.40;0.50;;;12.90;99.90;;;;;;4874818;28;91003;-76
2023/10/22 02:39:11;;;;;;;1.75;0.40;;;12.90;99.90;;;;;;4886556;28;88500;-76
2023/10/22 02:41:37;;;;;;;1.27;0.20;;;12.80;99.90;;;;;;4902473;28;86876;-76
2023/10/22 02:44:03;;;;;;;1.25;0.43;;;12.80;99.90;;;;;;4885049;28;86551;-76
2023/10/22 02:46:28;;;;;;;2.58;0.50;;;12.80;99.90;;;;;;4903240;28;88300;-76
2023/10/22 02:48:54;;;;;;;1.90;0.70;;;12.80;99.90;;;;;;4904090;28;86311;-76
2023/10/22 02:51:20;;;;;;;2.03;0.60;;;12.70;99.90;;;;;;4903056;28;86370;-76
2023/10/22 02:53:45;;;;;;;2.10;0.55;;;12.60;99.90;;;;;;4901851;28;87842;-76
2023/10/22 02:56:11;;;;;;;4.30;0.70;;;12.60;99.90;;;;;;4876774;28;90673;-76
2023/10/22 02:58:40;;;;;;;3.15;0.63;;;12.50;99.90;;;;;;4877749;28;90010;-76
2023/10/22 03:01:09;;;;;;;0.88;0.50;;;12.40;99.90;;;;;;4879898;28;87517;-76
2023/10/22 03:03:39;;;;;;;1.92;0.40;;;12.30;99.90;;;;;;4874960;28;86600;-76
2023/10/22 03:06:12;;;;;;;1.77;1.20;;;12.20;99.90;;;;;;4902839;28;87023;-75
2023/10/22 03:08:39;;;;;;;1.33;0.40;;;12.10;99.90;;;;;;4902311;28;87084;-76
2023/10/22 03:11:05;;;;;;;4.40;0.50;;;12.00;99.90;;;;;;4901053;28;86442;-76
2023/10/22 03:13:32;;;;;;;1.67;0.70;;;11.80;99.90;;;;;;4885817;28;87102;-75
2023/10/22 03:16:11;;;;;;;2.90;0.40;;;11.80;99.90;;;;;;4878162;28;90800;-76
2023/10/22 03:18:37;;;;;;;1.13;0.40;;;11.70;99.90;;;;;;4901599;28;87223;-76
2023/10/22 03:21:25;;;;;;;1.70;0.30;;;11.60;99.90;;;;;;4903020;28;86298;-76
2023/10/22 03:23:50;;;;;;;0.82;0.40;;;11.50;99.90;;;;;;4901199;28;86738;-76
2023/10/22 03:26:17;;;;;;;1.58;0.30;;;11.50;99.90;;;;;;4906004;28;87187;-75
2023/10/22 03:28:44;;;;;;;0.70;0.30;;;11.50;99.90;;;;;;4904319;28;86398;-76
2023/10/22 03:31:10;;;;;;;1.55;0.40;;;11.50;99.90;;;;;;4877692;28;86572;-75
2023/10/22 03:33:36;;;;;;;3.75;0.50;;;11.40;99.90;;;;;;4902516;28;86979;-75
2023/10/22 03:36:04;;;;;;;2.38;0.40;;;11.40;99.90;;;;;;4880350;28;90478;-76
2023/10/22 03:38:31;;;;;;;1.90;0.40;;;11.40;99.90;;;;;;4874131;28;89904;-76
2023/10/22 03:41:21;;;;;;;0.90;0.30;;;11.40;99.90;;;;;;4876151;28;86853;-75
2023/10/22 03:43:46;;;;;;;2.28;0.50;;;11.40;99.90;;;;;;4885076;28;86763;-76
2023/10/22 03:46:12;;;;;;;1.10;0.30;;;11.40;99.90;;;;;;4902470;28;86641;-78
2023/10/22 03:48:38;;;;;;;1.48;0.40;;;11.40;99.90;;;;;;4901000;28;86774;-76
2023/10/22 03:51:04;;;;;;;1.08;0.50;;;11.40;99.90;;;;;;4878761;28;86255;-75
2023/10/22 03:53:30;;;;;;;1.00;0.47;;;11.40;99.90;;;;;;4902826;28;86455;-75
2023/10/22 03:55:56;;;;;;;1.75;0.35;;;11.40;99.90;;;;;;4878850;28;90452;-76
2023/10/22 03:58:25;;;;;;;2.55;0.40;;;11.40;99.90;;;;;;4905100;28;86845;-76
2023/10/22 04:00:53;;;;;;;1.85;0.63;;;11.50;99.90;;;;;;4881426;28;86077;-76
2023/10/22 04:03:18;;;;;;;1.50;0.60;;;11.40;99.90;;;;;;4883177;28;86879;-75
2023/10/22 04:05:44;;;;;;;2.97;0.50;;;11.50;99.90;;;;;;4905101;28;87058;-76
2023/10/22 04:08:10;;;;;;;0.30;0.30;;;11.50;99.90;;;;;;4887741;28;88811;-76
2023/10/22 04:10:45;;;;;;;1.80;0.50;;;11.50;99.90;;;;;;4878196;28;86385;-75
2023/10/22 04:13:11;;;;;;;2.50;0.63;;;11.60;99.90;;;;;;4879344;28;87216;-76
2023/10/22 04:15:37;;;;;;;3.15;0.65;;;11.50;99.90;;;;;;4904490;28;87180;-77
2023/10/22 04:18:03;;;;;;;4.82;0.50;;;11.60;99.90;;;;;;4884617;28;89940;-76
2023/10/22 04:20:33;;;;;;;1.60;0.50;;;11.60;99.90;;;;;;4879952;28;87085;-76
2023/10/22 04:22:58;;;;;;;1.83;0.50;;;11.60;99.90;;;;;;4878461;28;87358;-76
2023/10/22 04:25:25;;;;;;;1.20;0.50;;;11.60;99.90;;;;;;4903976;28;86504;-76
2023/10/22 04:27:51;;;;;;;1.35;0.50;;;11.60;99.90;;;;;;4877545;28;89715;-76
2023/10/22 04:30:17;;;;;;;2.47;0.38;;;11.60;99.90;;;;;;4904328;28;86767;-76
2023/10/22 04:32:42;;;;;;;3.35;0.80;;;11.60;99.90;;;;;;4905413;28;87114;-76
2023/10/22 04:35:08;;;;;;;2.35;0.55;;;11.60;99.90;;;;;;4878017;28;89673;-76
2023/10/22 04:37:34;;;;;;;0.75;0.35;;;11.60;99.90;;;;;;4878223;28;89855;-76
2023/10/22 04:39:59;;;;;;;3.80;0.47;;;11.50;99.90;;;;;;4877557;28;87804;-76
2023/10/22 04:42:27;;;;;;;3.20;0.40;;;11.60;99.90;;;;;;4874916;28;86473;-76
2023/10/22 04:44:53;;;;;;;2.97;0.93;;;11.50;99.90;;;;;;4903643;28;89611;-76
2023/10/22 04:47:23;;;;;;;1.10;0.50;;;11.50;99.90;;;;;;4903936;28;86454;-76
2023/10/22 04:49:54;;;;;;;0.52;0.47;;;11.50;99.90;;;;;;4886733;28;86667;-75
2023/10/22 04:52:33;;;;;;;1.17;0.43;;;11.50;99.90;;;;;;4886646;28;87370;-76
2023/10/22 04:54:59;;;;;;;1.33;0.50;;;11.50;99.90;;;;;;4905250;28;87323;-76
2023/10/22 04:57:26;;;;;;;1.40;0.30;;;11.40;99.90;;;;;;4905580;28;86569;-76
2023/10/22 04:59:52;;;;;;;1.92;0.30;;;11.40;99.90;;;;;;4879891;28;86607;-76
2023/10/22 05:02:18;;;;;;;1.20;0.40;;;11.40;99.90;;;;;;4879844;28;86540;-76
2023/10/22 05:04:47;;;;;;;1.30;0.40;;;11.40;99.90;;;;;;4903204;28;87220;-76
2023/10/22 05:07:16;;;;;;;0.85;0.40;;;11.40;99.90;;;;;;4877960;28;90036;-76
2023/10/22 05:09:42;;;;;;;1.00;0.32;;;11.40;99.90;;;;;;4905340;28;86699;-76
2023/10/22 05:12:08;;;;;;;2.35;0.40;;;11.50;99.90;;;;;;4905631;28;86379;-76
2023/10/22 05:14:34;;;;;;;1.17;0.63;;;11.50;99.90;;;;;;4904631;28;88851;-76
2023/10/22 05:17:00;;;;;;;0.43;0.40;;;11.40;99.90;;;;;;4886038;28;90328;-76
2023/10/22 05:19:26;;;;;;;1.50;0.50;;;11.40;99.90;;;;;;4885708;28;87049;-76
2023/10/22 05:21:52;;;;;;;1.52;0.30;;;11.40;99.90;;;;;;4903463;28;86932;-76
2023/10/22 05:24:18;;;;;;;2.15;0.43;;;11.40;99.90;;;;;;4875803;28;90643;-76
2023/10/22 05:26:44;;;;;;;0.63;0.38;;;11.40;99.90;;;;;;4878035;28;89430;-75
2023/10/22 05:29:09;;;;;;;3.83;0.52;;;11.40;99.90;;;;;;4903839;28;86590;-76
2023/10/22 05:31:35;;;;;;;0.70;0.40;;;11.40;99.90;;;;;;4879845;28;86752;-76
2023/10/22 05:34:01;;;;;;;2.10;0.75;;;11.40;99.90;;;;;;4886460;28;90271;-76
2023/10/22 05:36:27;;;;;;;1.90;0.47;;;11.40;99.90;;;;;;4905890;28;87318;-75
2023/10/22 05:38:53;;;;;;;0.60;0.38;;;11.50;99.90;;;;;;4879810;28;86460;-76
2023/10/22 05:41:26;;;;;;;1.40;0.43;;;11.40;99.90;;;;;;4904057;28;86771;-76
2023/10/22 05:43:56;;;;;;;0.63;0.60;;;11.50;99.90;;;;;;4876994;28;90578;-76
2023/10/22 05:46:26;;;;;;;1.20;0.40;;;11.50;99.90;;;;;;4873978;28;89839;-76
2023/10/22 05:48:52;;;;;;;1.77;0.60;;;11.50;99.90;;;;;;4874996;28;87141;-75
2023/10/22 05:51:17;;;;;;;0.77;0.77;;;11.50;99.90;;;;;;4882648;28;86246;-77
2023/10/22 05:53:47;;;;;;;1.50;0.47;;;11.50;99.90;;;;;;4882962;28;90214;-76
2023/10/22 05:56:12;;;;;;;3.70;0.40;;;11.50;99.90;;;;;;4881825;28;90020;-76
2023/10/22 05:58:39;;;;;;;2.65;0.45;;;11.60;99.90;;;;;;4904543;28;86611;-76
2023/10/22 06:01:06;;;;;;;1.90;0.50;;;11.60;99.90;;;;;;4880652;28;86964;-76
2023/10/22 06:03:32;;;;;;;2.00;0.40;;;11.60;99.90;;;;;;4902145;28;90479;-76
2023/10/22 06:05:58;;;;;;;2.28;0.45;;;11.60;99.90;;;;;;4878060;28;89180;-77
2023/10/22 06:08:23;;;;;;;3.17;0.65;;;11.60;99.90;;;;;;4877358;28;92518;-75
2023/10/22 06:10:49;;;;;;;2.25;0.75;;;11.60;99.90;;;;;;4886742;28;86285;-72
2023/10/22 06:13:15;;;;;;;3.65;0.60;;;11.70;99.90;;;;;;4885679;28;90041;-72
2023/10/22 06:15:43;;;;;;;1.83;0.35;;;11.70;99.90;;;;;;4903396;28;87614;-73
2023/10/22 06:18:12;;;;;;;2.10;0.60;;;11.70;99.90;;;;;;4904093;28;86267;-73
2023/10/22 06:20:38;;;;;;;5.45;0.68;;;11.70;99.90;;;;;;4881548;28;86615;-73
2023/10/22 06:23:05;;;;;;;1.83;0.50;;;11.70;99.90;;;;;;4877997;28;89492;-74
2023/10/22 06:25:32;;;;;;;1.48;0.43;;;11.70;99.90;;;;;;4882309;28;90801;-73
2023/10/22 06:27:59;;;;;;;0.40;0.30;;;11.70;99.90;;;;;;4875561;28;86591;-73
2023/10/22 06:30:25;;;;;;;3.35;0.50;;;11.80;99.90;;;;;;4904392;28;86487;-73
2023/10/22 06:32:58;;;;;;;1.13;0.40;;;11.80;99.90;;;;;;4878734;28;89267;-73
2023/10/22 06:35:28;;;;;;;1.52;0.50;;;11.80;99.90;;;;;;4878863;28;89824;-73
2023/10/22 06:37:53;;;;;;;1.88;0.47;;;11.80;99.90;;;;;;4903270;28;86286;-75
2023/10/22 06:40:20;;;;;;;1.92;0.40;;;11.80;99.90;;;;;;4901800;28;86151;-73
2023/10/22 06:42:47;;;;;;;0.88;0.50;;;11.80;99.90;;;;;;4879300;28;91543;-73
2023/10/22 06:45:15;;;;;;;0.68;0.40;;;11.80;99.90;;;;;;4875914;28;89524;-73
2023/10/22 06:47:41;;;;;;;4.13;0.30;;;11.80;99.90;;;;;;4879092;28;86323;-73
2023/10/22 06:50:11;;;;;;;4.05;0.47;;;11.90;99.90;;;;;;4885161;28;87104;-73
2023/10/22 06:52:37;;;;;;;1.55;0.65;;;11.90;99.90;;;;;;4881255;28;86519;-72
2023/10/22 06:55:04;;;;;;;1.63;0.40;;;11.90;99.90;;;;;;4875438;28;90161;-73
2023/10/22 06:57:33;;;;;;;0.88;0.30;;;11.90;99.90;;;;;;4873202;28;86928;-72
2023/10/22 06:59:59;;;;;;;0.75;0.50;;;12.00;99.90;;;;;;4878467;28;86150;-73
2023/10/22 07:02:25;;;;;;;1.67;0.70;;;12.00;99.90;;;;;;4902986;28;86455;-73
2023/10/22 07:04:55;;;;;;;1.85;0.40;;;12.00;99.90;;;;;;4876313;28;89181;-74
2023/10/22 07:07:22;;;;;;;0.43;0.30;;;12.00;99.90;;;;;;4901675;28;87309;-72
2023/10/22 07:09:48;;;;;;;1.30;0.45;;;12.10;99.90;;;;;;4876314;28;86612;-73
2023/10/22 07:12:14;;;;;;;0.50;0.30;;;12.10;99.90;;;;;;4903033;28;87535;-74
2023/10/22 07:14:40;;;;;;;1.20;0.43;;;12.10;99.90;;;;;;4903104;28;86754;-74
2023/10/22 07:17:06;;;;;;;1.30;0.40;;;12.20;99.90;;;;;;4878249;28;86649;-74
2023/10/22 07:19:31;;;;;;;0.40;0.30;;;12.20;99.90;;;;;;4902305;28;86627;-74
2023/10/22 07:21:57;;;;;;;2.15;0.50;;;12.20;99.90;;;;;;4878551;28;89920;-74
2023/10/22 07:24:23;;;;;;;2.83;0.40;;;12.20;99.90;;;;;;4903435;28;87043;-74
2023/10/22 07:26:49;;;;;;;0.40;0.40;;;12.30;99.90;;;;;;4886054;28;86771;-74
2023/10/22 07:29:16;;;;;;;1.50;0.50;;;12.30;99.90;;;;;;4881198;28;86627;-75
2023/10/22 07:31:43;;;;;;;1.20;0.40;;;12.30;99.90;;;;;;4886114;28;90457;-75
2023/10/22 07:34:09;;;;;;;0.60;0.30;;;12.30;99.90;;;;;;4904875;28;86523;-73
2023/10/22 07:36:35;;;;;;;0.90;0.60;;;12.30;99.90;;;;;;4876016;28;86688;-73
2023/10/22 07:39:01;;;;;;;1.23;0.60;;;12.40;99.90;;;;;;4879594;28;86459;-75
2023/10/22 07:41:27;;;;;;;0.98;0.70;;;12.40;99.90;;;;;;4878199;28;89421;-72
2023/10/22 07:43:53;;;;;;;0.98;0.50;;;12.40;99.90;;;;;;4876494;28;89530;-71
2023/10/22 07:46:19;;;;;;;0.52;0.40;;;12.40;99.90;;;;;;4882312;28;86838;-75
2023/10/22 07:48:45;;;;;;;2.22;0.88;;;12.50;99.90;;;;;;4904530;28;86514;-72
2023/10/22 07:51:22;;;;;;;0.75;0.40;;;12.50;99.90;;;;;;4877761;28;86551;-77
2023/10/22 07:53:48;;;;;;;0.90;0.50;;;12.50;99.90;;;;;;4888876;28;91253;-73
2023/10/22 07:56:16;;;;;;;1.67;0.40;;;12.50;99.90;;;;;;4881885;28;86131;-72
2023/10/22 07:58:42;;;;;;;1.48;0.40;;;12.60;99.90;;;;;;4881850;28;86461;-75
2023/10/22 08:01:11;;;;;;;0.90;0.40;;;12.70;99.90;;;;;;4884005;28;90731;-73
2023/10/22 08:03:37;;;;;;;0.85;0.40;;;12.70;99.90;;;;;;4889308;28;89222;-78
2023/10/22 08:06:04;;;;;;;1.95;0.30;;;12.70;99.90;;;;;;4882031;28;86905;-75
2023/10/22 08:08:30;;;;;;;0.30;0.30;;;12.80;99.90;;;;;;4905368;28;86421;-71
2023/10/22 08:10:57;;;;;;;1.38;0.30;;;12.90;99.90;;;;;;4903268;28;87423;-73
2023/10/22 08:13:23;;;;;;;2.63;0.50;;;12.90;99.90;;;;;;4874864;28;89716;-71
2023/10/22 08:15:49;;;;;;;1.23;0.30;;;13.00;99.90;;;;;;4903233;28;86431;-73
2023/10/22 08:18:15;;;;;;;0.38;0.20;;;13.00;99.90;;;;;;4905674;28;86791;-72
2023/10/22 08:20:41;;;;;;;0.20;0.20;;;13.10;99.90;;;;;;4885806;28;90028;-73
2023/10/22 08:23:07;;;;;;;0.20;0.20;;;13.10;99.90;;;;;;4903674;28;87157;-76
2023/10/22 08:25:33;;;;;;;0.47;0.20;;;13.20;99.90;;;;;;4897361;28;86819;-73
2023/10/22 08:27:59;;;;;;;0.98;0.30;;;13.20;99.90;;;;;;4882576;28;86590;-75
2023/10/22 08:30:26;;;;;;;0.17;0.13;;;13.30;99.90;;;;;;4905259;28;87287;-74
2023/10/22 08:32:52;;;;;;;0.60;0.20;;;13.30;99.90;;;;;;4876124;28;91272;-74
2023/10/22 08:35:17;;;;;;;1.27;0.20;;;13.40;99.90;;;;;;4879933;28;87599;-73
2023/10/22 08:37:44;;;;;;;0.95;0.20;;;13.40;99.90;;;;;;4903473;28;86270;-72
2023/10/22 08:40:13;;;;;;;3.78;0.28;;;13.40;99.90;;;;;;4902897;28;86907;-73
2023/10/22 08:42:39;;;;;;;0.52;0.30;;;13.50;99.90;;;;;;4880708;28;89767;-73
2023/10/22 08:45:09;;;;;;;0.63;0.20;;;13.50;99.90;;;;;;4878806;28;87157;-75
2023/10/22 08:47:36;;;;;;;0.20;0.20;;;13.50;99.90;;;;;;4905069;28;85925;-72
2023/10/22 08:50:02;;;;;;;2.10;0.30;;;13.50;99.90;;;;;;4881679;28;90113;-73
2023/10/22 08:52:28;;;;;;;0.20;0.20;;;13.60;99.90;;;;;;4884109;28;90403;-76
2023/10/22 08:54:54;;;;;;;1.02;0.20;;;13.60;99.90;;;;;;4905733;28;87263;-72
2023/10/22 08:57:21;;;;;;;0.70;0.22;;;13.60;99.90;;;;;;4878482;28;86086;-71
2023/10/22 08:59:48;;;;;;;2.75;0.17;;;13.70;99.90;;;;;;4905143;28;87049;-74
2023/10/22 09:02:16;;;;;;;1.38;0.20;;;13.70;99.90;;;;;;4906116;28;92129;-71
2023/10/22 09:04:42;;;;;;;0.52;0.15;;;13.80;99.90;;;;;;4881827;28;86563;-72
2023/10/22 09:07:08;;;;;;;0.30;0.20;;;13.80;99.90;;;;;;4885860;28;85897;-73
2023/10/22 09:09:38;;;;;;;0.73;0.20;;;13.90;99.90;;;;;;4881440;28;90395;-76
2023/10/22 09:12:10;;;;;;;0.32;0.10;;;13.90;99.90;;;;;;4905622;28;87378;-71
2023/10/22 09:14:36;;;;;;;2.42;0.20;;;14.00;99.90;;;;;;4880758;28;86907;-74
2023/10/22 09:17:20;;;;;;;4.47;0.35;;;14.00;99.90;;;;;;4904713;28;86850;-73
2023/10/22 09:20:02;;;;;;;2.17;0.20;;;14.10;99.90;;;;;;4880775;28;90816;-72
2023/10/22 09:22:28;;;;;;;1.85;0.20;;;14.20;99.90;;;;;;4906588;28;90098;-75
2023/10/22 09:24:57;;;;;;;0.90;0.30;;;14.20;99.90;;;;;;4905462;28;86771;-71
2023/10/22 09:27:41;;;;;;;1.35;0.17;;;14.30;99.90;;;;;;4890839;28;86347;-72
2023/10/22 09:30:07;;;;;;;0.52;0.30;;;14.30;99.90;;;;;;4905277;28;94596;-72
2023/10/22 09:32:33;;;;;;;0.90;0.30;;;14.40;99.90;;;;;;4882157;28;91232;-75
2023/10/22 09:35:15;;;;;;;1.58;0.30;;;14.40;99.90;;;;;;4905004;28;86992;-73
2023/10/22 09:37:50;;;;;;;1.65;0.40;;;14.40;99.90;;;;;;4905355;28;86375;-72
2023/10/22 09:40:24;;;;;;;1.00;0.20;;;14.40;99.90;;;;;;4887587;28;90435;-74
2023/10/22 09:42:51;;;;;;;1.15;0.20;;;14.40;99.90;;;;;;4886063;28;88113;-72
2023/10/22 09:45:23;;;;;;;0.38;0.17;;;14.50;99.90;;;;;;4889155;28;86848;-73
2023/10/22 09:47:53;;;;;;;1.33;0.30;;;14.50;99.90;;;;;;4886890;28;86782;-74
2023/10/22 09:50:20;;;;;;;0.95;0.20;;;14.60;99.90;;;;;;4906371;28;86902;-75
2023/10/22 09:52:48;;;;;;;1.13;0.30;;;14.70;99.90;;;;;;4906242;28;86872;-72
2023/10/22 09:55:13;;;;;;;0.63;0.30;;;14.80;99.90;;;;;;4902603;28;86602;-73
2023/10/22 09:57:40;;;;;;;0.60;0.20;;;14.80;99.90;;;;;;4904715;28;86342;-75
2023/10/22 10:00:13;;;;;;;1.30;0.20;;;14.80;99.90;;;;;;4904561;28;86958;-73
2023/10/22 10:02:42;;;;;;;1.77;0.35;;;14.90;99.90;;;;;;4872122;28;90333;-74
2023/10/22 10:05:12;;;;;;;1.02;0.15;;;15.00;99.90;;;;;;4883280;28;86406;-73
2023/10/22 10:07:41;;;;;;;1.65;0.40;;;15.00;99.90;;;;;;4907519;28;86952;-72
2023/10/22 10:10:10;;;;;;;1.10;0.20;;;15.10;99.90;;;;;;4883413;28;90389;-73
2023/10/22 10:12:40;;;;;;;0.68;0.20;;;15.20;99.90;;;;;;4884369;28;90427;-73
2023/10/22 10:15:06;;;;;;;0.60;0.20;;;15.20;99.90;;;;;;4891328;28;86457;-73
2023/10/22 10:17:52;;;;;;;1.85;0.50;;;15.20;99.90;;;;;;4882640;28;87558;-72
2023/10/22 10:20:24;;;;;;;0.35;0.25;;;15.20;99.90;;;;;;4888674;28;90304;-72
2023/10/22 10:23:02;;;;;;;0.70;0.30;;;15.20;99.90;;;;;;4882847;28;89020;-71
2023/10/22 10:25:30;;;;;;;0.30;0.30;;;15.20;99.90;;;;;;4905580;28;86608;-75
2023/10/22 10:27:59;;;;;;;0.45;0.40;;;15.20;99.90;;;;;;4907010;28;86401;-73
2023/10/22 10:30:25;;;;;;;0.75;0.40;;;15.20;99.90;;;;;;4890526;28;90791;-74
2023/10/22 10:32:51;;;;;;;0.28;0.28;;;15.30;99.90;;;;;;4881809;28;90068;-72
2023/10/22 10:35:18;;;;;;;0.93;0.55;;;15.30;99.90;;;;;;4905209;28;86684;-74
2023/10/22 10:38:15;;;;;;;1.15;0.80;;;15.40;99.90;;;;;;4881975;28;86418;-72
2023/10/22 10:40:50;;;;;;;0.82;0.40;;;15.50;99.90;;;;;;4902214;28;87467;-73
2023/10/22 10:43:18;;;;;;;3.58;1.05;;;15.60;99.90;;;;;;4902894;28;86970;-74
2023/10/22 10:46:28;;;;;;;0.63;0.32;;;15.70;99.90;;;;;;4914107;28;86320;-72
2023/10/22 10:48:54;;;;;;;0.70;0.30;;;15.80;99.90;;;;;;4890650;28;86378;-72
2023/10/22 10:51:22;;;;;;;0.30;0.30;;;15.70;99.90;;;;;;4904720;28;86897;-73
2023/10/22 10:54:24;;;;;;;1.48;0.40;;;15.60;99.90;;;;;;4878377;28;89733;-73
2023/10/22 10:56:51;;;;;;;1.60;0.40;;;15.50;99.90;;;;;;4886864;28;87263;-75
2023/10/22 10:59:33;;;;;;;1.55;0.40;;;15.50;99.90;;;;;;4880107;28;86569;-73
2023/10/22 11:02:07;;;;;;;0.40;0.40;;;15.40;99.90;;;;;;4887897;28;90411;-73
2023/10/22 11:04:39;;;;;;;0.50;0.50;;;15.20;99.90;;;;;;4887798;28;90267;-73
2023/10/22 11:07:06;;;;;;;0.50;0.50;;;15.20;99.90;;;;;;4879277;28;86321;-74
2023/10/22 11:09:35;;;;;;;0.95;0.50;;;15.30;99.90;;;;;;4904328;28;86801;-76
2023/10/22 11:12:03;;;;;;;0.80;0.40;;;15.30;99.90;;;;;;4884018;28;89555;-76
2023/10/22 11:14:33;;;;;;;1.73;0.50;;;15.40;99.90;;;;;;4903517;28;87047;-72
2023/10/22 11:17:00;;;;;;;1.08;0.52;;;15.50;99.90;;;;;;4882273;28;87335;-75
2023/10/22 11:19:28;;;;;;;4.90;0.50;;;15.60;99.90;;;;;;4883560;28;86751;-77
2023/10/22 11:21:58;;;;;;;2.13;0.50;;;15.70;99.90;;;;;;4849703;28;87241;-75
2023/10/22 11:24:45;;;;;;;1.40;0.30;;;15.80;99.90;;;;;;4873262;28;88306;-73
2023/10/22 11:27:12;;;;;;;1.45;0.40;;;15.80;99.90;;;;;;4897297;28;87599;-73
2023/10/22 11:29:42;;;;;;;4.82;0.50;;;15.90;99.90;;;;;;4898997;28;86245;-72
2023/10/22 11:32:12;;;;;;;2.28;0.40;;;15.90;99.90;;;;;;4900736;28;86692;-73
2023/10/22 11:34:50;;;;;;;1.52;0.50;;;16.00;99.90;;;;;;4864174;28;89739;-76
2023/10/22 11:37:41;;;;;;;4.63;0.93;;;16.00;99.90;;;;;;4881060;28;86526;-72
2023/10/22 11:40:25;;;;;;;4.65;0.75;;;16.00;99.90;;;;;;4877893;28;86527;-74
2023/10/22 11:42:51;;;;;;;3.03;0.50;;;16.00;99.90;;;;;;4876542;28;90717;-72
2023/10/22 11:45:16;;;;;;;2.60;0.30;;;16.00;99.90;;;;;;4868630;28;89523;-75
2023/10/22 11:47:45;;;;;;;1.35;0.50;;;15.90;99.90;;;;;;4875167;28;87900;-77
2023/10/22 11:50:13;;;;;;;1.63;0.50;;;15.80;99.90;;;;;;4890408;28;86973;-73
2023/10/22 11:52:48;;;;;;;3.97;0.50;;;15.80;99.90;;;;;;4849691;28;87067;-75
2023/10/22 11:55:13;;;;;;;2.03;0.43;;;15.60;99.90;;;;;;4835995;28;88651;-74
2023/10/22 11:57:39;;;;;;;1.65;0.55;;;15.50;99.90;;;;;;4866335;28;86623;-75
2023/10/22 12:00:06;;;;;;;1.65;0.75;;;15.40;99.90;;;;;;4869300;28;87339;-73
2023/10/22 12:02:32;;;;;;;4.38;0.80;;;15.30;99.90;;;;;;4863606;28;91831;-77
2023/10/22 12:04:58;;;;;;;4.43;0.93;;;15.20;99.90;;;;;;4872212;28;86590;-72
2023/10/22 12:07:23;;;;;;;3.05;0.77;;;15.20;99.90;;;;;;4874190;28;86784;-73
2023/10/22 12:09:49;;;;;;;3.42;0.77;;;15.20;99.90;;;;;;4882883;28;86455;-74
2023/10/22 12:12:15;;;;;;;1.75;0.80;;;15.20;99.90;;;;;;4867541;28;90098;-71
2023/10/22 12:14:42;;;;;;;3.80;1.05;;;15.20;99.90;;;;;;4854604;28;88606;-74
2023/10/22 12:17:08;;;;;;;4.88;0.82;;;15.20;99.90;;;;;;4867104;28;86320;-72
2023/10/22 12:19:37;;;;;;;5.75;1.02;;;15.40;99.90;;;;;;4868094;28;86804;-75
2023/10/22 12:22:02;;;;;;;7.28;1.73;;;15.50;99.90;;;;;;4885920;28;86906;-75
2023/10/22 12:24:28;;;;;;;7.22;2.45;;;15.60;99.90;;;;;;4857054;28;89654;-74
2023/10/22 12:26:54;;;;;;;4.03;1.35;;;15.70;99.90;;;;;;4886537;28;87775;-72
2023/10/22 12:29:21;;;;;;;2.95;1.10;;;15.80;99.90;;;;;;4865769;28;86912;-73
2023/10/22 12:31:46;;;;;;;1.80;0.60;;;15.90;99.90;;;;;;4867659;28;90248;-72
2023/10/22 12:34:12;;;;;;;2.40;0.60;;;15.90;99.90;;;;;;4885965;28;87971;-79
2023/10/22 12:36:38;;;;;;;3.55;0.70;;;15.80;99.90;;;;;;4864812;28;86233;-72
2023/10/22 12:39:03;;;;;;;3.20;1.15;;;15.80;99.90;;;;;;4870635;28;86592;-73
2023/10/22 12:41:29;;;;;;;3.03;0.70;;;15.70;99.90;;;;;;4887198;28;86793;-73
2023/10/22 12:43:55;;;;;;;3.70;0.60;;;15.70;99.90;;;;;;4889123;28;86493;-74
2023/10/22 12:46:20;;;;;;;4.00;1.23;;;15.60;99.90;;;;;;4874142;28;86429;-71
2023/10/22 12:48:46;;;;;;;3.78;0.90;;;15.70;99.90;;;;;;4871323;28;86236;-73
2023/10/22 12:51:14;;;;;;;3.15;0.65;;;15.80;99.90;;;;;;4892788;28;86940;-75